Time;durP1;ratioP1;P1;durP2;ratioP2;P2;SDS_P1;SDS_P2;PMS_P1;PMS_P2;Temp;Humidity;BMP_temperature;BMP_pressure;BME280_temperature;BME280_humidity;BME280_pressure;Samples;Min_cycle;Max_cycle;Signal;HPM_P1;HPM_P2
2021/01/21 00:02:25;;;;;;;360.92;198.05;;;;;;;;;;5028522;28;20025;-55
2021/01/21 00:04:52;;;;;;;298.48;162.30;;;;;;;;;;5027968;28;20071;-57
2021/01/21 00:07:18;;;;;;;289.15;155.05;;;;;;;;;;5029337;28;20039;-52
2021/01/21 00:09:44;;;;;;;277.77;147.93;;;;;;;;;;5025931;28;20029;-52
2021/01/21 00:12:10;;;;;;;279.92;150.77;;;;;;;;;;5021175;28;20083;-51
2021/01/21 00:14:36;;;;;;;285.85;154.25;;;;;;;;;;5029832;28;20044;-51
2021/01/21 00:17:02;;;;;;;294.92;158.13;;;;;;;;;;5028688;28;20037;-56
2021/01/21 00:19:28;;;;;;;312.95;172.85;;;;;;;;;;5032118;28;20033;-53
2021/01/21 00:21:54;;;;;;;303.80;162.88;;;;;;;;;;5022326;28;20022;-55
2021/01/21 00:24:20;;;;;;;328.98;174.20;;;;;;;;;;5028768;28;20452;-54
2021/01/21 00:26:46;;;;;;;307.77;162.35;;;;;;;;;;5032196;28;20543;-56
2021/01/21 00:29:12;;;;;;;301.25;162.27;;;;;;;;;;5030866;28;20484;-53
2021/01/21 00:31:38;;;;;;;319.05;169.23;;;;;;;;;;5031933;28;20049;-56
2021/01/21 00:34:05;;;;;;;307.08;166.50;;;;;;;;;;5031293;28;20028;-52
2021/01/21 00:36:31;;;;;;;337.48;185.25;;;;;;;;;;5027024;28;20053;-53
2021/01/21 00:38:57;;;;;;;312.02;167.45;;;;;;;;;;5031184;28;20040;-51
2021/01/21 00:41:23;;;;;;;308.70;165.18;;;;;;;;;;5030615;28;20081;-56
2021/01/21 00:43:49;;;;;;;286.98;152.85;;;;;;;;;;5030391;28;20488;-53
2021/01/21 00:46:15;;;;;;;288.75;150.38;;;;;;;;;;5029179;28;20026;-53
2021/01/21 00:48:42;;;;;;;299.70;153.32;;;;;;;;;;5026730;28;20029;-51
2021/01/21 00:51:09;;;;;;;295.35;154.10;;;;;;;;;;5031988;28;20022;-54
2021/01/21 00:53:35;;;;;;;296.85;155.35;;;;;;;;;;5027589;28;20106;-53
2021/01/21 00:56:01;;;;;;;316.67;162.00;;;;;;;;;;5030246;28;20014;-52
2021/01/21 00:58:27;;;;;;;321.65;165.93;;;;;;;;;;5028969;28;20512;-55
2021/01/21 01:00:53;;;;;;;329.92;164.40;;;;;;;;;;5030908;28;20021;-52
2021/01/21 01:03:19;;;;;;;330.92;171.30;;;;;;;;;;5028623;28;20440;-53
2021/01/21 01:05:46;;;;;;;318.13;163.20;;;;;;;;;;5031660;28;20092;-54
2021/01/21 01:08:12;;;;;;;332.63;178.60;;;;;;;;;;5031528;28;20466;-55
2021/01/21 01:10:38;;;;;;;367.95;194.80;;;;;;;;;;5020095;28;20017;-54
2021/01/21 01:13:04;;;;;;;368.75;200.23;;;;;;;;;;5016530;28;20052;-53
2021/01/21 01:15:31;;;;;;;352.13;191.63;;;;;;;;;;5019227;28;20070;-54
2021/01/21 01:17:58;;;;;;;339.02;173.40;;;;;;;;;;5031299;28;20021;-54
2021/01/21 01:20:24;;;;;;;332.40;174.73;;;;;;;;;;5032140;28;20021;-54
2021/01/21 01:22:50;;;;;;;309.13;161.20;;;;;;;;;;5032211;28;20033;-54
2021/01/21 01:25:17;;;;;;;329.02;175.95;;;;;;;;;;5032158;28;20100;-54
2021/01/21 01:27:43;;;;;;;315.85;164.65;;;;;;;;;;5031854;28;20017;-53
2021/01/21 01:30:12;;;;;;;316.65;168.45;;;;;;;;;;5031430;28;20029;-54
2021/01/21 01:32:39;;;;;;;314.45;163.15;;;;;;;;;;5031421;28;20133;-54
2021/01/21 01:35:05;;;;;;;309.08;164.00;;;;;;;;;;5032016;28;20087;-54
2021/01/21 01:37:31;;;;;;;312.92;161.73;;;;;;;;;;5031844;28;20113;-56
2021/01/21 01:39:57;;;;;;;319.38;167.77;;;;;;;;;;5032130;28;20393;-54
2021/01/21 01:42:24;;;;;;;313.00;166.63;;;;;;;;;;5030729;28;20030;-56
2021/01/21 01:44:50;;;;;;;316.92;167.15;;;;;;;;;;5031922;28;20014;-54
2021/01/21 01:47:16;;;;;;;317.02;165.82;;;;;;;;;;5032058;28;20039;-53
2021/01/21 01:49:43;;;;;;;314.85;169.43;;;;;;;;;;5034329;28;20028;-54
2021/01/21 01:52:09;;;;;;;336.55;181.32;;;;;;;;;;5035780;28;20735;-53
2021/01/21 01:54:35;;;;;;;334.27;182.93;;;;;;;;;;5036057;28;20485;-54
2021/01/21 01:57:02;;;;;;;357.88;189.80;;;;;;;;;;5035785;28;20023;-53
2021/01/21 01:59:32;;;;;;;370.42;198.73;;;;;;;;;;5035879;28;20025;-54
2021/01/21 02:01:59;;;;;;;397.80;218.82;;;;;;;;;;5035741;28;20116;-52
2021/01/21 02:04:25;;;;;;;375.27;196.05;;;;;;;;;;5035500;28;20026;-56
2021/01/21 02:06:51;;;;;;;374.40;204.00;;;;;;;;;;5032990;28;20029;-54
2021/01/21 02:09:17;;;;;;;364.27;194.63;;;;;;;;;;5026122;28;20029;-53
2021/01/21 02:11:59;;;;;;;358.60;185.30;;;;;;;;;;5031239;28;20105;-53
2021/01/21 02:14:28;;;;;;;334.65;175.40;;;;;;;;;;5027114;28;20067;-55
2021/01/21 02:17:05;;;;;;;328.40;166.98;;;;;;;;;;5028705;28;20018;-54
2021/01/21 02:19:37;;;;;;;319.20;163.85;;;;;;;;;;5034118;28;20076;-53
2021/01/21 02:22:09;;;;;;;337.77;179.07;;;;;;;;;;5034497;28;20092;-56
2021/01/21 02:24:35;;;;;;;330.38;173.80;;;;;;;;;;5033086;28;20381;-56
2021/01/21 02:27:04;;;;;;;354.88;190.48;;;;;;;;;;5032568;28;20029;-51
2021/01/21 02:29:36;;;;;;;367.08;195.10;;;;;;;;;;5032862;28;20101;-52
2021/01/21 02:32:02;;;;;;;361.60;191.77;;;;;;;;;;5032998;28;20067;-56
2021/01/21 02:34:49;;;;;;;352.65;188.60;;;;;;;;;;5033308;28;20021;-54
2021/01/21 02:37:25;;;;;;;342.77;180.30;;;;;;;;;;5031265;28;20021;-53
2021/01/21 02:39:53;;;;;;;344.50;181.18;;;;;;;;;;5031100;28;20175;-54
2021/01/21 02:42:19;;;;;;;330.15;174.30;;;;;;;;;;5032210;28;20029;-53
2021/01/21 02:44:45;;;;;;;322.50;167.45;;;;;;;;;;5030808;28;20032;-56
2021/01/21 02:47:12;;;;;;;320.80;170.13;;;;;;;;;;5032899;28;20033;-53
2021/01/21 02:49:39;;;;;;;309.35;162.45;;;;;;;;;;5032805;28;20496;-53
2021/01/21 02:52:20;;;;;;;331.83;174.77;;;;;;;;;;5033505;28;20036;-54
2021/01/21 02:55:05;;;;;;;314.38;166.23;;;;;;;;;;5028805;28;20018;-56
2021/01/21 02:57:37;;;;;;;336.92;173.90;;;;;;;;;;5022683;28;20465;-54
2021/01/21 03:00:11;;;;;;;318.58;169.20;;;;;;;;;;5021687;28;20029;-54
2021/01/21 03:02:50;;;;;;;323.33;166.77;;;;;;;;;;5023798;28;20037;-54
2021/01/21 03:05:18;;;;;;;313.42;166.75;;;;;;;;;;5028015;28;20410;-53
2021/01/21 03:07:44;;;;;;;309.13;159.73;;;;;;;;;;5020091;28;20072;-53
2021/01/21 03:10:11;;;;;;;312.55;159.93;;;;;;;;;;5018724;28;20504;-53
2021/01/21 03:12:37;;;;;;;299.55;156.65;;;;;;;;;;5018007;28;20054;-55
2021/01/21 03:15:05;;;;;;;311.83;161.27;;;;;;;;;;5020892;28;20026;-53
2021/01/21 03:17:31;;;;;;;305.27;158.48;;;;;;;;;;5024267;28;20380;-53
2021/01/21 03:19:57;;;;;;;314.90;166.95;;;;;;;;;;5021926;28;20587;-53
2021/01/21 03:22:23;;;;;;;339.15;182.38;;;;;;;;;;5017899;28;20026;-54
2021/01/21 03:24:49;;;;;;;331.45;173.30;;;;;;;;;;5027416;28;20026;-54
2021/01/21 03:27:15;;;;;;;325.15;167.95;;;;;;;;;;5034417;28;20123;-56
2021/01/21 03:29:41;;;;;;;312.95;162.45;;;;;;;;;;5034550;28;20020;-54
2021/01/21 03:32:08;;;;;;;313.92;169.45;;;;;;;;;;5034182;28;20058;-54
2021/01/21 03:34:34;;;;;;;323.58;165.68;;;;;;;;;;5034445;28;20028;-54
2021/01/21 03:37:00;;;;;;;307.48;158.80;;;;;;;;;;5034251;28;20025;-55
2021/01/21 03:39:26;;;;;;;306.73;158.32;;;;;;;;;;5034114;28;20432;-53
2021/01/21 03:41:52;;;;;;;310.50;163.82;;;;;;;;;;5034253;28;20033;-56
2021/01/21 03:44:18;;;;;;;318.27;167.35;;;;;;;;;;5034247;28;20041;-53
2021/01/21 03:46:45;;;;;;;304.58;160.90;;;;;;;;;;5033399;28;20481;-54
2021/01/21 03:49:11;;;;;;;319.77;167.13;;;;;;;;;;5033848;28;20104;-53
2021/01/21 03:51:37;;;;;;;318.67;165.93;;;;;;;;;;5033962;28;20044;-54
2021/01/21 03:54:03;;;;;;;286.40;146.18;;;;;;;;;;5033979;28;20040;-53
2021/01/21 03:56:29;;;;;;;282.02;144.23;;;;;;;;;;5033711;28;20025;-54
2021/01/21 03:58:55;;;;;;;252.05;131.63;;;;;;;;;;5033959;28;20091;-54
2021/01/21 04:01:21;;;;;;;257.80;134.43;;;;;;;;;;5032356;28;20030;-54
2021/01/21 04:03:47;;;;;;;253.02;130.88;;;;;;;;;;5033960;28;20025;-55
2021/01/21 04:06:13;;;;;;;257.13;131.38;;;;;;;;;;5033471;28;20104;-54
2021/01/21 04:08:39;;;;;;;283.42;142.23;;;;;;;;;;5033710;28;20100;-54
2021/01/21 04:11:05;;;;;;;261.95;131.30;;;;;;;;;;5033591;28;20437;-53
2021/01/21 04:13:31;;;;;;;248.20;128.25;;;;;;;;;;5032819;28;20065;-54
2021/01/21 04:15:57;;;;;;;274.80;139.13;;;;;;;;;;5027007;28;20029;-54
2021/01/21 04:18:23;;;;;;;265.80;138.90;;;;;;;;;;5033385;28;20048;-55
2021/01/21 04:20:49;;;;;;;276.02;143.95;;;;;;;;;;5033098;28;20017;-53
2021/01/21 04:23:15;;;;;;;272.00;139.88;;;;;;;;;;5033211;28;20025;-54
2021/01/21 04:25:41;;;;;;;276.25;141.48;;;;;;;;;;5033110;28;20108;-55
2021/01/21 04:28:07;;;;;;;278.52;144.35;;;;;;;;;;5031859;28;20033;-54
2021/01/21 04:30:33;;;;;;;261.33;137.32;;;;;;;;;;5033197;28;20022;-54
2021/01/21 04:33:00;;;;;;;289.25;152.23;;;;;;;;;;5028675;28;20057;-56
2021/01/21 04:35:26;;;;;;;259.33;138.35;;;;;;;;;;5022348;28;20113;-53
2021/01/21 04:37:54;;;;;;;267.55;135.00;;;;;;;;;;5032883;28;20515;-53
2021/01/21 04:40:21;;;;;;;255.65;131.02;;;;;;;;;;5032806;28;20052;-54
2021/01/21 04:42:47;;;;;;;243.80;125.38;;;;;;;;;;5033029;28;20064;-54
2021/01/21 04:45:13;;;;;;;244.75;126.90;;;;;;;;;;5031828;28;20021;-53
2021/01/21 04:47:39;;;;;;;238.05;124.70;;;;;;;;;;5032862;28;20076;-55
2021/01/21 04:50:06;;;;;;;248.65;127.50;;;;;;;;;;5032563;28;20041;-54
2021/01/21 04:52:38;;;;;;;244.45;130.57;;;;;;;;;;5023682;28;20117;-54
2021/01/21 04:55:26;;;;;;;269.38;137.15;;;;;;;;;;5029580;28;20108;-54
2021/01/21 04:58:10;;;;;;;254.77;133.40;;;;;;;;;;5032641;28;20025;-54
2021/01/21 05:00:38;;;;;;;271.38;137.30;;;;;;;;;;5019393;28;20021;-56
2021/01/21 05:03:04;;;;;;;270.75;136.10;;;;;;;;;;5032533;28;20061;-54
2021/01/21 05:05:30;;;;;;;277.80;143.15;;;;;;;;;;5032461;28;20789;-56
2021/01/21 05:07:57;;;;;;;352.38;181.73;;;;;;;;;;5032678;28;20097;-53
2021/01/21 05:10:23;;;;;;;352.98;188.55;;;;;;;;;;5032347;28;20044;-55
2021/01/21 05:12:49;;;;;;;356.80;189.32;;;;;;;;;;5032407;28;20087;-54
2021/01/21 05:15:15;;;;;;;345.20;183.65;;;;;;;;;;5025664;28;20026;-54
2021/01/21 05:17:42;;;;;;;342.67;176.70;;;;;;;;;;5032254;28;20503;-54
2021/01/21 05:20:08;;;;;;;418.30;222.10;;;;;;;;;;5032521;28;20036;-54
2021/01/21 05:22:35;;;;;;;366.85;181.80;;;;;;;;;;5022908;28;20529;-54
2021/01/21 05:25:02;;;;;;;348.23;168.55;;;;;;;;;;5026894;28;20028;-53
2021/01/21 05:27:28;;;;;;;352.65;175.88;;;;;;;;;;5023570;28;20040;-54
2021/01/21 05:29:54;;;;;;;257.63;125.30;;;;;;;;;;5013539;28;20014;-55
2021/01/21 05:32:20;;;;;;;290.75;143.43;;;;;;;;;;5028227;28;20447;-55
2021/01/21 05:34:48;;;;;;;299.58;155.02;;;;;;;;;;5030742;28;20050;-53
2021/01/21 05:37:15;;;;;;;322.63;164.95;;;;;;;;;;5029645;28;20104;-55
2021/01/21 05:39:41;;;;;;;314.00;161.27;;;;;;;;;;5031713;28;20021;-54
2021/01/21 05:42:07;;;;;;;207.00;109.28;;;;;;;;;;5029248;28;20029;-52
2021/01/21 05:44:34;;;;;;;170.15;94.78;;;;;;;;;;5020902;28;20014;-55
2021/01/21 05:47:01;;;;;;;97.97;54.65;;;;;;;;;;5019677;28;20100;-53
2021/01/21 05:49:27;;;;;;;435.73;158.80;;;;;;;;;;5022617;28;20076;-56
2021/01/21 05:51:55;;;;;;;204.90;106.15;;;;;;;;;;5018138;28;20072;-54
2021/01/21 05:54:21;;;;;;;73.45;37.80;;;;;;;;;;5027628;28;20116;-54
2021/01/21 05:56:48;;;;;;;48.95;25.50;;;;;;;;;;5024375;28;20040;-54
2021/01/21 05:59:15;;;;;;;231.13;120.40;;;;;;;;;;5032032;28;20476;-54
2021/01/21 06:01:41;;;;;;;261.55;135.68;;;;;;;;;;5027969;28;20026;-55
2021/01/21 06:04:07;;;;;;;275.30;141.93;;;;;;;;;;5028939;28;20029;-55
2021/01/21 06:06:37;;;;;;;296.20;155.40;;;;;;;;;;5019688;28;20022;-56
2021/01/21 06:09:03;;;;;;;294.13;153.93;;;;;;;;;;5031701;28;20028;-53
2021/01/21 06:11:29;;;;;;;276.38;152.07;;;;;;;;;;5030704;28;20022;-54
2021/01/21 06:13:55;;;;;;;262.00;141.23;;;;;;;;;;5031975;28;20083;-54
2021/01/21 06:16:21;;;;;;;262.45;142.52;;;;;;;;;;5032049;28;20026;-54
2021/01/21 06:18:50;;;;;;;272.08;145.07;;;;;;;;;;5032014;28;20480;-54
2021/01/21 06:21:18;;;;;;;315.10;162.02;;;;;;;;;;5031860;28;20084;-54
2021/01/21 06:23:46;;;;;;;289.98;150.45;;;;;;;;;;5031801;28;20026;-54
2021/01/21 06:26:13;;;;;;;268.60;146.18;;;;;;;;;;5032021;28;20415;-54
2021/01/21 06:28:40;;;;;;;295.55;156.48;;;;;;;;;;5032366;28;20453;-54
2021/01/21 06:31:06;;;;;;;361.00;185.05;;;;;;;;;;5031481;28;20370;-54
2021/01/21 06:33:35;;;;;;;354.33;186.85;;;;;;;;;;5019999;28;20046;-53
2021/01/21 06:36:05;;;;;;;316.85;170.77;;;;;;;;;;5017220;28;20028;-55
2021/01/21 06:38:42;;;;;;;286.77;154.80;;;;;;;;;;5035681;28;20057;-54
2021/01/21 06:41:09;;;;;;;269.35;149.55;;;;;;;;;;5035408;28;20033;-55
2021/01/21 06:43:41;;;;;;;280.00;149.90;;;;;;;;;;5035511;28;20025;-54
2021/01/21 06:46:07;;;;;;;;;;;;;;;;;;5035834;28;20060;-55
2021/01/21 06:48:33;;;;;;;314.40;163.70;;;;;;;;;;5035418;28;19971;-55
2021/01/21 06:51:05;;;;;;;318.65;170.88;;;;;;;;;;5035385;28;20393;-56
2021/01/21 06:53:31;;;;;;;305.58;164.80;;;;;;;;;;5035326;28;20542;-54
2021/01/21 06:55:57;;;;;;;290.80;160.25;;;;;;;;;;5035290;28;20108;-54
2021/01/21 06:58:42;;;;;;;308.15;165.60;;;;;;;;;;5035058;28;20022;-54
2021/01/21 07:01:28;;;;;;;303.08;162.48;;;;;;;;;;5035034;28;20030;-54
2021/01/21 07:03:54;;;;;;;366.08;205.55;;;;;;;;;;5035166;28;20030;-55
2021/01/21 07:06:20;;;;;;;371.33;199.23;;;;;;;;;;5034694;28;20025;-55
2021/01/21 07:09:05;;;;;;;321.35;183.98;;;;;;;;;;5034882;28;20021;-56
2021/01/21 07:11:32;;;;;;;384.58;224.38;;;;;;;;;;5034942;28;20032;-54
2021/01/21 07:13:58;;;;;;;348.83;200.50;;;;;;;;;;5034721;28;20060;-56
2021/01/21 07:16:24;;;;;;;502.92;278.33;;;;;;;;;;5034669;28;20036;-55
2021/01/21 07:18:53;;;;;;;364.40;217.13;;;;;;;;;;5034584;28;20025;-55
2021/01/21 07:21:25;;;;;;;367.63;210.27;;;;;;;;;;5034595;28;20420;-54
2021/01/21 07:23:54;;;;;;;399.75;234.27;;;;;;;;;;5034425;28;20492;-54
2021/01/21 07:26:27;;;;;;;387.83;230.70;;;;;;;;;;5034464;28;20495;-54
2021/01/21 07:28:52;;;;;;;;;;;;;;;;;;5034787;28;20022;-54
2021/01/21 07:31:19;;;;;;;430.67;255.73;;;;;;;;;;5034118;28;19994;-54
2021/01/21 07:33:45;;;;;;;443.25;268.25;;;;;;;;;;5034195;28;20544;-54
2021/01/21 07:36:29;;;;;;;437.88;264.17;;;;;;;;;;5033899;28;20155;-55
2021/01/21 07:38:55;;;;;;;509.48;309.25;;;;;;;;;;5034346;28;20105;-55
2021/01/21 07:41:53;;;;;;;478.75;287.85;;;;;;;;;;5032844;28;20427;-55
2021/01/21 07:44:19;;;;;;;452.48;268.80;;;;;;;;;;5034325;28;20029;-55
2021/01/21 07:46:45;;;;;;;455.48;273.02;;;;;;;;;;5033984;28;20377;-54
2021/01/21 07:49:23;;;;;;;517.38;315.08;;;;;;;;;;5034063;28;20546;-54
2021/01/21 07:52:16;;;;;;;528.08;322.98;;;;;;;;;;5021205;28;20048;-54
2021/01/21 07:54:46;;;;;;;504.75;307.05;;;;;;;;;;5033679;28;20045;-54
2021/01/21 07:57:12;;;;;;;498.80;311.95;;;;;;;;;;5033854;28;20025;-56
2021/01/21 07:59:57;;;;;;;497.70;309.23;;;;;;;;;;5034032;28;20358;-55
2021/01/21 08:02:23;;;;;;;475.73;296.30;;;;;;;;;;5033545;28;20028;-55
2021/01/21 08:04:58;;;;;;;444.58;278.45;;;;;;;;;;5033536;28;20037;-54
2021/01/21 08:07:24;;;;;;;467.00;289.13;;;;;;;;;;5033571;28;20036;-54
2021/01/21 08:10:06;;;;;;;459.23;293.95;;;;;;;;;;5033586;28;20021;-55
2021/01/21 08:12:32;;;;;;;441.30;282.27;;;;;;;;;;5034030;28;20021;-55
2021/01/21 08:14:58;;;;;;;441.60;276.77;;;;;;;;;;5033621;28;20033;-54
2021/01/21 08:17:25;;;;;;;442.92;278.35;;;;;;;;;;5032403;28;20026;-55
2021/01/21 08:19:51;;;;;;;433.50;276.45;;;;;;;;;;5033169;28;20547;-55
2021/01/21 08:22:17;;;;;;;446.80;285.17;;;;;;;;;;5033408;28;20029;-55
2021/01/21 08:25:01;;;;;;;447.02;283.27;;;;;;;;;;5033409;28;20472;-55
2021/01/21 08:27:48;;;;;;;461.48;295.23;;;;;;;;;;5033151;28;20040;-55
2021/01/21 08:30:34;;;;;;;458.20;290.08;;;;;;;;;;5033330;28;20021;-55
2021/01/21 08:33:06;;;;;;;468.75;296.75;;;;;;;;;;5032767;28;20088;-55
2021/01/21 08:35:35;;;;;;;;;;;;;;;;;;5033782;28;20112;-55
2021/01/21 08:38:02;;;;;;;385.42;240.07;;;;;;;;;;5032828;28;20280;-55
2021/01/21 08:40:29;;;;;;;369.65;234.65;;;;;;;;;;5033307;28;20457;-55
2021/01/21 08:42:55;;;;;;;379.38;241.43;;;;;;;;;;5033109;28;20068;-55
2021/01/21 08:45:26;;;;;;;400.52;262.80;;;;;;;;;;5033359;28;20056;-55
2021/01/21 08:47:52;;;;;;;392.45;246.75;;;;;;;;;;5033014;28;20022;-55
2021/01/21 08:50:20;;;;;;;371.95;237.65;;;;;;;;;;5032996;28;20377;-56
2021/01/21 08:53:01;;;;;;;400.25;258.40;;;;;;;;;;5032752;28;20044;-55
2021/01/21 08:55:36;;;;;;;388.08;253.70;;;;;;;;;;5020219;28;20127;-55
2021/01/21 08:58:03;;;;;;;396.45;260.33;;;;;;;;;;5032236;28;20021;-55
2021/01/21 09:00:30;;;;;;;431.42;288.48;;;;;;;;;;5032792;28;20124;-55
2021/01/21 09:02:56;;;;;;;415.63;279.20;;;;;;;;;;5032893;28;20056;-55
2021/01/21 09:05:23;;;;;;;416.60;282.60;;;;;;;;;;5032449;28;20025;-56
2021/01/21 09:07:52;;;;;;;494.55;323.05;;;;;;;;;;5032893;28;20078;-56
2021/01/21 09:10:18;;;;;;;457.50;299.52;;;;;;;;;;5032540;28;20405;-55
2021/01/21 09:12:44;;;;;;;440.67;294.05;;;;;;;;;;5032411;28;20037;-56
2021/01/21 09:15:12;;;;;;;449.25;297.90;;;;;;;;;;5032474;28;20025;-56
2021/01/21 09:17:38;;;;;;;462.05;305.38;;;;;;;;;;5032885;28;20029;-58
2021/01/21 09:20:19;;;;;;;449.30;297.65;;;;;;;;;;5032539;28;20021;-56
2021/01/21 09:22:46;;;;;;;455.63;298.67;;;;;;;;;;5032351;28;20084;-56
2021/01/21 09:25:12;;;;;;;386.02;261.05;;;;;;;;;;5032434;28;20105;-56
2021/01/21 09:27:39;;;;;;;365.25;239.48;;;;;;;;;;5032059;28;20026;-55
2021/01/21 09:30:06;;;;;;;381.70;245.23;;;;;;;;;;5032429;28;20408;-56
2021/01/21 09:32:32;;;;;;;416.55;280.90;;;;;;;;;;5030370;28;20400;-56
2021/01/21 09:34:58;;;;;;;353.17;236.43;;;;;;;;;;5032180;28;20036;-55
2021/01/21 09:37:25;;;;;;;406.30;275.20;;;;;;;;;;5032066;28;20025;-55
2021/01/21 09:39:51;;;;;;;412.40;283.30;;;;;;;;;;5032130;28;20021;-55
2021/01/21 09:42:18;;;;;;;413.80;284.02;;;;;;;;;;5032378;28;20071;-55
2021/01/21 09:44:44;;;;;;;455.00;307.05;;;;;;;;;;5031875;28;20086;-56
2021/01/21 09:47:10;;;;;;;436.25;301.95;;;;;;;;;;5032131;28;20071;-56
2021/01/21 09:49:36;;;;;;;453.05;315.00;;;;;;;;;;5031937;28;20025;-56
2021/01/21 09:52:05;;;;;;;475.23;323.38;;;;;;;;;;5031899;28;20028;-56
2021/01/21 09:54:31;;;;;;;479.60;329.83;;;;;;;;;;5031766;28;20026;-56
2021/01/21 09:56:57;;;;;;;372.90;258.02;;;;;;;;;;5032006;28;20022;-56
2021/01/21 09:59:24;;;;;;;355.98;249.02;;;;;;;;;;5031939;28;20523;-56
2021/01/21 10:01:50;;;;;;;83.20;51.47;;;;;;;;;;5031780;28;20029;-55
2021/01/21 10:04:17;;;;;;;41.58;26.08;;;;;;;;;;5031792;28;20033;-56
2021/01/21 10:06:43;;;;;;;47.47;30.92;;;;;;;;;;5031757;28;20434;-56
2021/01/21 10:09:09;;;;;;;42.20;27.08;;;;;;;;;;5032763;28;20481;-56
2021/01/21 10:11:35;;;;;;;51.97;37.25;;;;;;;;;;5035702;28;20085;-56
2021/01/21 10:14:02;;;;;;;56.20;39.35;;;;;;;;;;5035843;28;20029;-56
2021/01/21 10:16:29;;;;;;;46.17;33.58;;;;;;;;;;5035555;28;20040;-56
2021/01/21 10:18:56;;;;;;;37.20;27.85;;;;;;;;;;5035720;28;20045;-56
2021/01/21 10:21:23;;;;;;;31.73;24.20;;;;;;;;;;5035873;28;20013;-57
2021/01/21 10:23:49;;;;;;;29.15;21.80;;;;;;;;;;5035481;28;20500;-56
2021/01/21 10:26:15;;;;;;;22.27;17.48;;;;;;;;;;5035839;28;20036;-57
2021/01/21 10:28:42;;;;;;;25.45;18.90;;;;;;;;;;5035697;28;20028;-56
2021/01/21 10:31:08;;;;;;;15.30;11.43;;;;;;;;;;5035409;28;20040;-57
2021/01/21 10:33:36;;;;;;;23.25;16.65;;;;;;;;;;5035606;28;20095;-56
2021/01/21 10:36:02;;;;;;;19.17;14.65;;;;;;;;;;5035495;28;20112;-57
2021/01/21 10:38:28;;;;;;;14.77;10.98;;;;;;;;;;5035566;28;20033;-57
2021/01/21 10:40:54;;;;;;;17.48;13.63;;;;;;;;;;5035211;28;20029;-57
2021/01/21 10:43:20;;;;;;;17.50;14.77;;;;;;;;;;5035481;28;20021;-57
2021/01/21 10:45:46;;;;;;;23.02;17.48;;;;;;;;;;5035191;28;20029;-58
2021/01/21 10:48:12;;;;;;;18.08;14.60;;;;;;;;;;5035017;28;20083;-57
2021/01/21 10:50:38;;;;;;;17.73;14.70;;;;;;;;;;5035186;28;20040;-57
2021/01/21 10:53:04;;;;;;;17.55;14.32;;;;;;;;;;5034975;28;20550;-58
2021/01/21 10:55:30;;;;;;;16.75;13.90;;;;;;;;;;5035101;28;20056;-58
2021/01/21 10:57:56;;;;;;;20.58;16.25;;;;;;;;;;5035005;28;20053;-58
2021/01/21 11:00:22;;;;;;;15.40;13.23;;;;;;;;;;5035046;28;20470;-57
2021/01/21 11:02:49;;;;;;;13.95;11.05;;;;;;;;;;5034772;28;20037;-55
2021/01/21 11:05:15;;;;;;;15.52;12.50;;;;;;;;;;5034472;28;20105;-55
2021/01/21 11:07:42;;;;;;;17.60;14.95;;;;;;;;;;5034550;28;20025;-58
2021/01/21 11:10:08;;;;;;;17.65;13.68;;;;;;;;;;5034640;28;20599;-57
2021/01/21 11:12:35;;;;;;;22.52;17.70;;;;;;;;;;5034456;28;20468;-58
2021/01/21 11:15:01;;;;;;;18.83;16.80;;;;;;;;;;5034455;28;20017;-55
2021/01/21 11:17:27;;;;;;;13.20;10.40;;;;;;;;;;5034636;28;20025;-55
2021/01/21 11:19:55;;;;;;;14.23;11.57;;;;;;;;;;5034364;28;20049;-55
2021/01/21 11:22:21;;;;;;;15.23;12.80;;;;;;;;;;5034138;28;20024;-56
2021/01/21 11:24:47;;;;;;;15.50;12.90;;;;;;;;;;5034535;28;20036;-56
2021/01/21 11:27:13;;;;;;;20.10;14.35;;;;;;;;;;5034716;28;20029;-55
2021/01/21 11:29:40;;;;;;;14.38;12.10;;;;;;;;;;5034647;28;20028;-56
2021/01/21 11:32:06;;;;;;;17.83;14.30;;;;;;;;;;5034397;28;20100;-56
2021/01/21 11:34:32;;;;;;;15.50;11.95;;;;;;;;;;5034377;28;20469;-56
2021/01/21 11:36:58;;;;;;;16.33;13.25;;;;;;;;;;5033016;28;20432;-54
2021/01/21 11:39:24;;;;;;;15.63;12.88;;;;;;;;;;5034167;28;20025;-56
2021/01/21 11:41:50;;;;;;;14.23;11.52;;;;;;;;;;5034240;28;20096;-55
2021/01/21 11:44:16;;;;;;;13.05;10.35;;;;;;;;;;5029779;28;20465;-55
2021/01/21 11:46:42;;;;;;;11.98;8.88;;;;;;;;;;5022770;28;20384;-55
2021/01/21 11:49:08;;;;;;;11.27;8.85;;;;;;;;;;5031067;28;20033;-55
2021/01/21 11:51:34;;;;;;;11.93;10.00;;;;;;;;;;5032074;28;20022;-55
2021/01/21 11:54:00;;;;;;;25.58;17.73;;;;;;;;;;5029858;28;20048;-55
2021/01/21 11:56:26;;;;;;;18.83;12.75;;;;;;;;;;5030099;28;20021;-56
2021/01/21 11:58:52;;;;;;;10.95;9.40;;;;;;;;;;5030747;28;20041;-55
2021/01/21 12:01:18;;;;;;;9.30;7.53;;;;;;;;;;5027543;28;20061;-56
2021/01/21 12:03:44;;;;;;;10.15;9.15;;;;;;;;;;5028056;28;20022;-56
2021/01/21 12:06:10;;;;;;;133.88;114.57;;;;;;;;;;5029462;28;20040;-56
2021/01/21 12:08:36;;;;;;;167.43;130.02;;;;;;;;;;5029799;28;20028;-56
2021/01/21 12:11:03;;;;;;;35.90;29.02;;;;;;;;;;5029642;28;20021;-56
2021/01/21 12:13:29;;;;;;;15.18;12.00;;;;;;;;;;5026474;28;20091;-56
2021/01/21 12:15:55;;;;;;;12.80;9.55;;;;;;;;;;5030326;28;20021;-56
2021/01/21 12:18:21;;;;;;;11.07;8.38;;;;;;;;;;5032602;28;20029;-55
2021/01/21 12:20:47;;;;;;;9.57;7.70;;;;;;;;;;5025174;28;20072;-56
2021/01/21 12:23:14;;;;;;;17.42;13.82;;;;;;;;;;5028354;28;20065;-56
2021/01/21 12:25:40;;;;;;;13.25;10.68;;;;;;;;;;5030199;28;20053;-56
2021/01/21 12:28:06;;;;;;;23.83;19.23;;;;;;;;;;5033003;28;20060;-56
2021/01/21 12:30:32;;;;;;;21.40;16.90;;;;;;;;;;5032038;28;20017;-55
2021/01/21 12:32:58;;;;;;;18.92;14.95;;;;;;;;;;5027794;28;20037;-56
2021/01/21 12:35:24;;;;;;;15.88;11.98;;;;;;;;;;5030985;28;20029;-55
2021/01/21 12:37:50;;;;;;;14.85;11.50;;;;;;;;;;5029379;28;20436;-55
2021/01/21 12:40:16;;;;;;;11.95;9.40;;;;;;;;;;5023557;28;20854;-56
2021/01/21 12:42:42;;;;;;;13.43;10.95;;;;;;;;;;5020489;28;20022;-56
2021/01/21 12:45:09;;;;;;;23.92;17.98;;;;;;;;;;5017609;28;20465;-55
2021/01/21 12:47:35;;;;;;;13.57;9.63;;;;;;;;;;5021898;28;20100;-56
2021/01/21 12:50:01;;;;;;;12.15;9.57;;;;;;;;;;5017505;28;20030;-55
2021/01/21 12:52:27;;;;;;;22.92;14.07;;;;;;;;;;5020737;28;20389;-56
2021/01/21 12:54:54;;;;;;;22.45;15.40;;;;;;;;;;5019375;28;20026;-55
2021/01/21 12:57:20;;;;;;;27.45;18.77;;;;;;;;;;5025811;28;20021;-55
2021/01/21 12:59:49;;;;;;;41.05;30.10;;;;;;;;;;5027359;28;20022;-55
2021/01/21 13:02:15;;;;;;;19.20;14.40;;;;;;;;;;5030087;28;20136;-54
2021/01/21 13:04:42;;;;;;;28.85;20.35;;;;;;;;;;5026696;28;20108;-55
2021/01/21 13:07:08;;;;;;;16.20;13.27;;;;;;;;;;5031643;28;20033;-53
2021/01/21 13:09:34;;;;;;;33.88;26.08;;;;;;;;;;5030658;28;20034;-56
2021/01/21 13:12:00;;;;;;;65.80;41.53;;;;;;;;;;5031124;28;20076;-55
2021/01/21 13:14:26;;;;;;;12.57;10.20;;;;;;;;;;5030601;28;20461;-56
2021/01/21 13:16:52;;;;;;;21.02;18.40;;;;;;;;;;5027152;28;20017;-55
2021/01/21 13:19:18;;;;;;;10.30;8.73;;;;;;;;;;5024783;28;20033;-55
2021/01/21 13:21:44;;;;;;;12.85;10.65;;;;;;;;;;5021935;28;20044;-56
2021/01/21 13:24:10;;;;;;;15.73;13.38;;;;;;;;;;5031314;28;20037;-56
2021/01/21 13:26:37;;;;;;;11.93;9.27;;;;;;;;;;5032788;28;20362;-55
2021/01/21 13:29:03;;;;;;;12.57;10.90;;;;;;;;;;5030895;28;20063;-55
2021/01/21 13:31:29;;;;;;;15.00;12.10;;;;;;;;;;5030033;28;20436;-54
2021/01/21 13:33:55;;;;;;;17.08;13.80;;;;;;;;;;5030130;28;20117;-57
2021/01/21 13:36:21;;;;;;;15.85;12.65;;;;;;;;;;5029615;28;20053;-57
2021/01/21 13:38:47;;;;;;;17.77;13.10;;;;;;;;;;5025194;28;20049;-57
2021/01/21 13:41:13;;;;;;;8.77;6.90;;;;;;;;;;5024724;28;20037;-57
2021/01/21 13:43:39;;;;;;;13.57;11.15;;;;;;;;;;5027954;28;20121;-57
2021/01/21 13:46:05;;;;;;;13.23;11.00;;;;;;;;;;5024716;28;20033;-56
2021/01/21 13:48:32;;;;;;;25.00;19.98;;;;;;;;;;5028782;28;20032;-57
2021/01/21 13:50:58;;;;;;;29.23;22.02;;;;;;;;;;5027895;28;20104;-56
2021/01/21 13:53:25;;;;;;;17.58;12.52;;;;;;;;;;5028805;28;20028;-56
2021/01/21 13:55:51;;;;;;;17.00;12.50;;;;;;;;;;5029495;28;20018;-57
2021/01/21 13:58:17;;;;;;;20.73;14.10;;;;;;;;;;5027683;28;20025;-56
2021/01/21 14:00:43;;;;;;;38.60;28.52;;;;;;;;;;5022843;28;20033;-57
2021/01/21 14:03:09;;;;;;;19.38;16.13;;;;;;;;;;5019697;28;20038;-56
2021/01/21 14:05:35;;;;;;;23.73;18.45;;;;;;;;;;5017390;28;20084;-56